createdAt,value
2019-03-08T00:00:16.863Z,1.20
2019-03-08T00:02:44.110Z,1.20
2019-03-08T00:05:11.446Z,1.30
2019-03-08T00:07:38.983Z,1.13
2019-03-08T00:10:06.426Z,1.33
2019-03-08T00:12:34.007Z,1.40
2019-03-08T00:15:01.278Z,1.43
2019-03-08T00:17:28.795Z,1.40
2019-03-08T00:19:56.066Z,1.80
2019-03-08T00:22:23.583Z,1.50
2019-03-08T00:24:50.861Z,1.70
2019-03-08T00:27:18.215Z,1.00
2019-03-08T00:29:45.490Z,1.13
2019-03-08T00:32:12.998Z,1.10
2019-03-08T00:34:40.242Z,1.27
2019-03-08T00:37:09.100Z,1.20
2019-03-08T00:39:36.647Z,1.57
2019-03-08T00:42:03.989Z,0.90
2019-03-08T00:44:31.229Z,1.33
2019-03-08T00:46:58.502Z,1.00
2019-03-08T00:49:25.746Z,1.10
2019-03-08T00:51:53.022Z,1.20
2019-03-08T00:54:20.265Z,1.20
2019-03-08T00:56:47.715Z,0.73
2019-03-08T00:59:14.953Z,1.30
2019-03-08T01:01:42.238Z,1.13
2019-03-08T01:04:09.473Z,1.50
2019-03-08T01:06:36.715Z,1.23
2019-03-08T01:09:05.366Z,1.30
2019-03-08T01:11:32.752Z,1.20
2019-03-08T01:14:00.168Z,1.30
2019-03-08T01:16:27.445Z,1.30
2019-03-08T01:18:54.686Z,1.07
2019-03-08T01:21:21.938Z,1.17
2019-03-08T01:23:49.198Z,1.20
2019-03-08T01:26:16.445Z,1.53
2019-03-08T01:28:43.904Z,1.20
2019-03-08T01:31:11.241Z,1.70
2019-03-08T01:33:38.525Z,1.43
2019-03-08T01:36:05.777Z,1.10
2019-03-08T01:38:33.021Z,0.83
2019-03-08T01:41:00.569Z,1.20
2019-03-08T01:43:27.843Z,1.20
2019-03-08T01:45:55.082Z,1.67
2019-03-08T01:48:22.366Z,1.30
2019-03-08T01:50:49.609Z,1.10
2019-03-08T01:53:16.938Z,2.10
2019-03-08T01:55:44.202Z,1.37
2019-03-08T01:58:11.449Z,1.23
2019-03-08T02:00:40.746Z,1.30
2019-03-08T02:03:07.690Z,1.10
2019-03-08T02:05:34.961Z,1.13
2019-03-08T02:08:02.309Z,1.40
2019-03-08T02:10:29.578Z,1.40
2019-03-08T02:12:56.850Z,1.40
2019-03-08T02:15:24.175Z,1.57
2019-03-08T02:17:51.624Z,1.17
2019-03-08T02:20:20.061Z,1.10
2019-03-08T02:22:47.421Z,1.10
2019-03-08T02:25:14.722Z,1.30
2019-03-08T02:27:42.035Z,1.17
2019-03-08T02:30:10.676Z,1.43
2019-03-08T02:32:37.946Z,1.27
2019-03-08T02:35:05.889Z,1.50
2019-03-08T02:37:33.161Z,1.20
2019-03-08T02:40:00.498Z,1.20
2019-03-08T02:42:27.749Z,1.53
2019-03-08T02:44:55.091Z,1.70
2019-03-08T02:47:22.335Z,1.03
2019-03-08T02:49:49.785Z,1.30
2019-03-08T02:52:17.291Z,1.10
2019-03-08T02:54:44.558Z,1.07
2019-03-08T02:57:11.804Z,1.10
2019-03-08T02:59:39.075Z,0.93
2019-03-08T03:02:06.382Z,1.40
2019-03-08T03:04:33.655Z,1.20
2019-03-08T03:07:00.928Z,1.80
2019-03-08T03:09:28.180Z,1.50
2019-03-08T03:11:55.442Z,1.33
2019-03-08T03:14:22.712Z,1.20
2019-03-08T03:16:50.029Z,1.20
2019-03-08T03:19:17.300Z,1.83
2019-03-08T03:21:44.750Z,1.50
2019-03-08T03:24:12.064Z,1.50
2019-03-08T03:26:39.674Z,1.37
2019-03-08T03:29:06.951Z,1.33
2019-03-08T03:31:34.303Z,1.23
2019-03-08T03:34:01.539Z,1.13
2019-03-08T03:36:28.816Z,2.00
2019-03-08T03:38:56.356Z,1.33
2019-03-08T03:41:23.636Z,1.60
2019-03-08T03:43:51.025Z,1.50
2019-03-08T03:46:18.298Z,1.77
2019-03-08T03:48:45.570Z,1.10
2019-03-08T03:51:12.822Z,1.50
2019-03-08T03:53:40.087Z,1.90
2019-03-08T03:56:07.325Z,1.70
2019-03-08T03:58:34.604Z,1.63
2019-03-08T04:01:03.554Z,1.37
2019-03-08T04:03:30.831Z,1.60
2019-03-08T04:05:58.099Z,1.60
2019-03-08T04:08:25.341Z,1.80
2019-03-08T04:10:52.896Z,1.50
2019-03-08T04:13:20.129Z,1.30
2019-03-08T04:15:47.407Z,1.50
2019-03-08T04:18:14.650Z,1.53
2019-03-08T04:20:41.924Z,1.60
2019-03-08T04:23:09.166Z,1.83
2019-03-08T04:25:36.518Z,1.70
2019-03-08T04:28:04.069Z,1.47
2019-03-08T04:30:31.627Z,1.60
2019-03-08T04:32:58.906Z,1.83
2019-03-08T04:35:26.218Z,2.10
2019-03-08T04:37:53.499Z,1.30
2019-03-08T04:40:20.741Z,1.60
2019-03-08T04:42:47.985Z,1.60
2019-03-08T04:45:15.507Z,1.70
2019-03-08T04:47:42.753Z,1.30
2019-03-08T04:50:10.703Z,1.77
2019-03-08T04:52:38.018Z,1.70
2019-03-08T04:55:13.070Z,1.30
2019-03-08T04:57:40.347Z,1.63
2019-03-08T05:00:09.391Z,1.63
2019-03-08T05:02:36.705Z,1.70
2019-03-08T05:05:04.674Z,1.60
2019-03-08T05:07:31.946Z,1.80
2019-03-08T05:09:59.213Z,2.17
2019-03-08T05:12:26.483Z,1.53
2019-03-08T05:14:53.930Z,1.80
2019-03-08T05:17:21.171Z,1.40
2019-03-08T05:19:48.447Z,1.90
2019-03-08T05:22:15.697Z,1.57
2019-03-08T05:24:42.961Z,1.50
2019-03-08T05:27:10.238Z,1.73
2019-03-08T05:29:37.482Z,1.60
2019-03-08T05:32:04.932Z,1.50
2019-03-08T05:34:32.282Z,1.70
2019-03-08T05:36:59.590Z,1.97
2019-03-08T05:39:26.853Z,1.93
2019-03-08T05:41:54.098Z,1.60
2019-03-08T05:44:21.371Z,1.90
2019-03-08T05:46:48.647Z,1.30
2019-03-08T05:49:16.065Z,1.70
2019-03-08T05:51:43.343Z,1.80
2019-03-08T05:54:10.686Z,1.50
2019-03-08T05:56:37.964Z,3.00
2019-03-08T05:59:05.251Z,1.87
2019-03-08T06:01:32.519Z,2.03
2019-03-08T06:03:59.788Z,1.40
2019-03-08T06:06:27.341Z,1.63
2019-03-08T06:08:54.577Z,1.60
2019-03-08T06:11:21.851Z,1.60
2019-03-08T06:13:49.116Z,1.80
2019-03-08T06:16:16.466Z,1.77
2019-03-08T06:18:43.737Z,1.90
2019-03-08T06:21:11.088Z,1.67
2019-03-08T06:23:38.799Z,1.97
2019-03-08T06:26:06.078Z,1.50
2019-03-08T06:28:33.406Z,2.10
2019-03-08T06:31:01.230Z,1.63
2019-03-08T06:33:28.508Z,2.33
2019-03-08T06:35:56.097Z,1.60
2019-03-08T06:38:23.369Z,2.13
2019-03-08T06:40:50.965Z,1.97
2019-03-08T06:43:18.233Z,1.67
2019-03-08T06:45:45.517Z,2.00
2019-03-08T06:48:12.824Z,1.70
2019-03-08T06:50:40.099Z,2.40
2019-03-08T06:53:07.446Z,1.80
2019-03-08T06:55:34.721Z,1.93
2019-03-08T06:58:03.150Z,1.90
2019-03-08T07:00:47.115Z,2.07
2019-03-08T07:03:14.458Z,1.97
2019-03-08T07:05:41.697Z,1.80
2019-03-08T07:08:08.975Z,1.87
2019-03-08T07:10:36.228Z,1.40
2019-03-08T07:13:04.022Z,1.70
2019-03-08T07:15:31.350Z,1.87
2019-03-08T07:17:58.630Z,2.13
2019-03-08T07:20:30.336Z,3.20
2019-03-08T07:23:11.173Z,1.70
2019-03-08T07:25:52.633Z,1.87
2019-03-08T07:28:35.809Z,1.90
2019-03-08T07:31:10.414Z,2.17
2019-03-08T07:33:53.268Z,2.10
2019-03-08T07:36:21.795Z,1.87
2019-03-08T07:39:07.133Z,1.73
2019-03-08T07:41:38.954Z,1.77
2019-03-08T07:44:16.566Z,1.87
2019-03-08T07:46:51.217Z,2.07
2019-03-08T07:49:23.089Z,1.60
2019-03-08T07:51:52.510Z,1.30
2019-03-08T07:54:27.142Z,1.90
2019-03-08T07:56:59.086Z,2.13
2019-03-08T07:59:30.653Z,2.47
2019-03-08T08:02:15.718Z,2.20
2019-03-08T08:05:00.737Z,2.20
2019-03-08T08:07:41.539Z,2.20
2019-03-08T08:10:13.175Z,2.00
2019-03-08T08:12:47.671Z,2.13
2019-03-08T08:15:16.581Z,2.13
2019-03-08T08:17:45.493Z,2.33
2019-03-08T08:20:29.499Z,2.50
2019-03-08T08:23:13.226Z,2.57
2019-03-08T08:25:42.137Z,2.50
2019-03-08T08:28:28.983Z,2.20
2019-03-08T08:31:03.690Z,2.10
2019-03-08T08:33:50.601Z,2.43
2019-03-08T08:36:28.529Z,2.17
2019-03-08T08:38:57.428Z,2.33
2019-03-08T08:41:32.274Z,2.30
2019-03-08T08:44:16.196Z,1.93
2019-03-08T08:47:01.254Z,2.40
2019-03-08T08:49:30.173Z,1.80
2019-03-08T08:52:05.143Z,2.00
2019-03-08T08:54:36.982Z,1.87
2019-03-08T08:57:17.954Z,2.30
2019-03-08T08:59:46.860Z,2.07
2019-03-08T09:02:18.798Z,1.87
2019-03-08T09:05:01.071Z,1.77
2019-03-08T09:07:29.790Z,2.00
2019-03-08T09:09:58.968Z,2.10
2019-03-08T09:12:30.597Z,1.80
2019-03-08T09:14:59.511Z,1.67
2019-03-08T09:17:28.418Z,1.33
2019-03-08T09:20:11.830Z,1.70
2019-03-08T09:22:49.898Z,1.97
2019-03-08T09:25:18.785Z,1.60
2019-03-08T09:28:03.031Z,1.73
2019-03-08T09:30:40.713Z,1.63
2019-03-08T09:33:15.513Z,1.60
2019-03-08T09:35:44.497Z,1.73
2019-03-08T09:38:13.374Z,1.60
2019-03-08T09:40:44.810Z,1.50
2019-03-08T09:43:19.809Z,1.60
2019-03-08T09:45:57.774Z,1.50
2019-03-08T09:48:27.089Z,1.20
2019-03-08T09:50:56.065Z,1.40
2019-03-08T09:53:31.050Z,1.53
2019-03-08T09:55:59.929Z,1.60
2019-03-08T09:58:31.554Z,1.50
2019-03-08T10:01:03.090Z,1.70
2019-03-08T10:03:41.005Z,1.30
2019-03-08T10:06:09.919Z,1.27
2019-03-08T10:08:53.670Z,1.40
2019-03-08T10:11:22.590Z,1.40
2019-03-08T10:13:51.478Z,1.40
2019-03-08T10:16:20.359Z,1.10
2019-03-08T10:18:55.239Z,1.70
2019-03-08T10:21:27.071Z,1.73
2019-03-08T10:24:08.068Z,1.33
2019-03-08T10:26:39.905Z,1.40
2019-03-08T10:29:14.632Z,1.80
2019-03-08T10:31:55.167Z,1.70
2019-03-08T10:34:36.053Z,1.60
2019-03-08T10:37:19.495Z,1.60
2019-03-08T10:39:51.694Z,1.40
2019-03-08T10:42:20.615Z,2.00
2019-03-08T10:45:05.873Z,1.80
2019-03-08T10:47:37.432Z,2.40
2019-03-08T10:50:23.181Z,1.97
2019-03-08T10:52:52.070Z,1.73
2019-03-08T10:55:23.938Z,1.87
2019-03-08T10:58:01.505Z,1.90
2019-03-08T11:00:30.417Z,1.80
2019-03-08T11:02:59.298Z,1.63
2019-03-08T11:05:46.372Z,1.87
2019-03-08T11:08:15.506Z,2.30
2019-03-08T11:10:44.628Z,1.90
2019-03-08T11:13:19.523Z,2.10
2019-03-08T11:16:00.146Z,1.83
2019-03-08T11:18:34.471Z,2.57
2019-03-08T11:21:09.310Z,2.40
2019-03-08T11:23:38.289Z,2.70
2019-03-08T11:26:13.014Z,2.53
2019-03-08T11:28:58.221Z,2.63
2019-03-08T11:31:35.933Z,2.50
2019-03-08T11:34:10.309Z,2.33
2019-03-08T11:36:47.958Z,2.27
2019-03-08T11:39:18.384Z,2.77
2019-03-08T11:41:47.358Z,2.40
2019-03-08T11:44:16.347Z,2.10
2019-03-08T11:46:54.295Z,2.37
2019-03-08T11:49:28.887Z,2.47
2019-03-08T11:52:12.522Z,2.10
2019-03-08T11:54:56.540Z,1.80
2019-03-08T11:57:40.407Z,1.93
2019-03-08T12:00:19.601Z,2.57
2019-03-08T12:02:54.595Z,2.60
2019-03-08T12:05:32.359Z,1.87
2019-03-08T12:08:10.350Z,2.87
2019-03-08T12:10:55.306Z,2.40
2019-03-08T12:13:33.152Z,1.70
2019-03-08T12:16:19.012Z,2.37
2019-03-08T12:18:47.804Z,1.80
2019-03-08T12:21:19.623Z,2.07
2019-03-08T12:23:48.539Z,2.20
2019-03-08T12:26:17.443Z,2.00
2019-03-08T12:28:49.105Z,1.77
2019-03-08T12:31:27.218Z,1.80
2019-03-08T12:34:01.837Z,1.67
2019-03-08T12:36:36.704Z,1.37
2019-03-08T12:39:15.919Z,1.40
2019-03-08T12:41:47.738Z,1.40
2019-03-08T12:44:29.148Z,1.50
2019-03-08T12:46:58.059Z,1.87
2019-03-08T12:49:29.730Z,1.60
2019-03-08T12:52:01.330Z,1.90
2019-03-08T12:54:45.834Z,1.90
2019-03-08T12:57:26.835Z,1.60
2019-03-08T13:00:04.759Z,2.33
2019-03-08T13:02:39.434Z,1.60
2019-03-08T13:05:23.309Z,2.00
2019-03-08T13:08:08.267Z,1.97
2019-03-08T13:10:35.540Z,1.90
2019-03-08T13:13:02.816Z,1.87
2019-03-08T13:15:30.062Z,2.33
2019-03-08T13:17:57.590Z,2.07
2019-03-08T13:20:24.929Z,2.17
2019-03-08T13:22:52.422Z,2.00
2019-03-08T13:25:19.870Z,1.90
2019-03-08T13:27:47.114Z,1.90
2019-03-08T13:30:23.722Z,1.90
2019-03-08T13:32:50.962Z,2.20
2019-03-08T13:35:18.218Z,2.10
2019-03-08T13:37:45.573Z,2.33
2019-03-08T13:40:14.629Z,3.50
2019-03-08T13:42:41.869Z,2.33
2019-03-08T13:45:10.770Z,1.90
2019-03-08T13:47:38.020Z,1.80
2019-03-08T13:50:07.030Z,2.20
2019-03-08T13:52:34.303Z,1.97
2019-03-08T13:55:01.843Z,2.00
2019-03-08T13:57:29.096Z,1.83
2019-03-08T13:59:56.434Z,1.97
2019-03-08T14:02:23.714Z,1.90
2019-03-08T14:04:51.278Z,1.97
2019-03-08T14:07:18.555Z,2.40
2019-03-08T14:09:45.819Z,1.87
2019-03-08T14:12:13.240Z,2.00
2019-03-08T14:14:40.499Z,2.20
2019-03-08T14:17:07.745Z,2.00
2019-03-08T14:19:35.097Z,1.60
2019-03-08T14:22:02.363Z,2.23
2019-03-08T14:24:29.612Z,1.80
2019-03-08T14:26:56.888Z,1.77
2019-03-08T14:29:24.139Z,2.00
2019-03-08T14:31:53.115Z,2.03
2019-03-08T14:34:20.382Z,1.77
2019-03-08T14:36:47.654Z,1.83
2019-03-08T14:39:14.893Z,2.10
2019-03-08T14:42:03.764Z,2.10
2019-03-08T14:44:47.499Z,1.77
2019-03-08T14:47:16.418Z,1.87
2019-03-08T14:49:43.736Z,1.97
2019-03-08T14:52:11.243Z,2.10
2019-03-08T14:54:42.462Z,1.90
2019-03-08T14:57:09.291Z,2.13
2019-03-08T14:59:37.413Z,2.13
2019-03-08T15:02:04.797Z,1.70
2019-03-08T15:04:33.255Z,1.70
2019-03-08T15:07:01.431Z,1.77
2019-03-08T15:09:30.714Z,1.50
2019-03-08T15:11:59.568Z,1.73
2019-03-08T15:14:30.266Z,1.40
2019-03-08T15:16:56.659Z,1.57
2019-03-08T15:19:24.657Z,1.93
2019-03-08T15:21:52.116Z,2.17
2019-03-08T15:24:21.295Z,1.70
2019-03-08T15:27:01.445Z,1.60
2019-03-08T15:29:28.739Z,1.70
2019-03-08T15:31:56.016Z,1.80
2019-03-08T15:34:23.298Z,1.67
2019-03-08T15:36:50.539Z,2.03
2019-03-08T15:39:17.893Z,1.60
2019-03-08T15:41:45.409Z,1.70
2019-03-08T15:44:12.750Z,1.80
2019-03-08T15:46:40.089Z,1.50
2019-03-08T15:49:07.700Z,1.50
2019-03-08T15:51:34.967Z,1.37
2019-03-08T15:54:02.247Z,1.33
2019-03-08T15:56:29.513Z,1.70
2019-03-08T15:58:56.773Z,1.50
2019-03-08T16:01:24.262Z,1.20
2019-03-08T16:03:51.611Z,1.60
2019-03-08T16:06:19.740Z,1.40
2019-03-08T16:08:47.114Z,1.10
2019-03-08T16:11:14.387Z,1.23
2019-03-08T16:13:41.631Z,1.23
2019-03-08T16:16:09.077Z,1.10
2019-03-08T16:18:36.361Z,1.10
2019-03-08T16:21:03.859Z,0.90
2019-03-08T16:23:31.103Z,1.10
2019-03-08T16:25:58.378Z,1.30
2019-03-08T16:28:25.620Z,1.10
2019-03-08T16:31:00.387Z,1.27
2019-03-08T16:33:29.256Z,1.30
2019-03-08T16:36:05.203Z,1.33
2019-03-08T16:38:34.153Z,1.00
2019-03-08T16:41:19.942Z,1.37
2019-03-08T16:44:05.080Z,1.10
2019-03-08T16:46:34.147Z,1.17
2019-03-08T16:49:05.491Z,0.90
2019-03-08T16:51:46.913Z,1.00
2019-03-08T16:54:18.266Z,0.90
2019-03-08T16:56:51.014Z,1.00
2019-03-08T16:59:20.260Z,1.23
2019-03-08T17:01:49.236Z,1.23
2019-03-08T17:04:29.966Z,2.00
2019-03-08T17:07:01.668Z,1.80
2019-03-08T17:09:33.052Z,1.50
2019-03-08T17:12:13.902Z,1.40
2019-03-08T17:14:54.855Z,1.50
2019-03-08T17:17:23.785Z,1.43
2019-03-08T17:20:04.750Z,1.87
2019-03-08T17:22:36.641Z,1.70
2019-03-08T17:25:06.192Z,1.50
2019-03-08T17:27:51.842Z,1.80
2019-03-08T17:30:23.652Z,1.50
2019-03-08T17:33:01.528Z,1.50
2019-03-08T17:35:35.162Z,1.70
2019-03-08T17:38:09.981Z,1.70
2019-03-08T17:40:44.670Z,1.50
2019-03-08T17:43:13.583Z,3.00
2019-03-08T17:45:47.916Z,1.70
2019-03-08T17:48:25.724Z,1.80
2019-03-08T17:51:10.726Z,1.80
2019-03-08T17:53:45.352Z,1.67
2019-03-08T17:56:17.083Z,1.90
2019-03-08T17:58:58.019Z,2.07
2019-03-08T18:01:35.950Z,1.83
2019-03-08T18:04:04.838Z,2.53
2019-03-08T18:06:48.206Z,2.17
2019-03-08T18:09:31.954Z,2.40
2019-03-08T18:12:03.547Z,1.90
2019-03-08T18:14:35.394Z,2.37
2019-03-08T18:17:13.473Z,2.40
2019-03-08T18:20:21.092Z,2.07
2019-03-08T18:22:50.766Z,2.00
2019-03-08T18:25:23.796Z,1.97
2019-03-08T18:28:08.395Z,2.63
2019-03-08T18:30:46.493Z,2.43
2019-03-08T18:33:20.257Z,2.70
2019-03-08T18:35:53.979Z,3.07
2019-03-08T18:38:37.989Z,1.90
2019-03-08T18:41:15.272Z,2.30
2019-03-08T18:44:07.262Z,2.03
2019-03-08T18:46:44.447Z,2.07
2019-03-08T18:49:22.028Z,2.50
2019-03-08T18:51:57.040Z,2.40
2019-03-08T18:54:50.050Z,2.10
2019-03-08T18:57:42.400Z,2.03
2019-03-08T19:00:18.604Z,2.13
2019-03-08T19:02:48.488Z,2.10
2019-03-08T19:05:20.518Z,2.70
2019-03-08T19:08:01.241Z,2.40
2019-03-08T19:10:38.146Z,1.90
2019-03-08T19:13:27.155Z,2.33
2019-03-08T19:16:05.566Z,2.03
2019-03-08T19:18:34.894Z,2.40
2019-03-08T19:21:12.866Z,2.30
2019-03-08T19:23:44.485Z,2.20
2019-03-08T19:26:13.456Z,2.70
2019-03-08T19:28:48.179Z,2.17
2019-03-08T19:31:25.929Z,2.50
2019-03-08T19:34:00.898Z,2.37
2019-03-08T19:36:38.736Z,2.40
2019-03-08T19:39:25.895Z,2.03
2019-03-08T19:41:54.841Z,2.50
2019-03-08T19:44:24.030Z,2.20
2019-03-08T19:47:09.367Z,2.00
2019-03-08T19:49:38.546Z,2.37
2019-03-08T19:52:13.612Z,2.37
2019-03-08T19:54:51.342Z,2.43
2019-03-08T19:57:23.045Z,2.23
2019-03-08T20:00:00.469Z,2.53
2019-03-08T20:02:47.241Z,2.13
2019-03-08T20:05:28.051Z,2.60
2019-03-08T20:08:05.672Z,2.50
2019-03-08T20:10:37.365Z,2.90
2019-03-08T20:13:12.346Z,2.40
2019-03-08T20:15:43.935Z,2.37
2019-03-08T20:18:21.847Z,2.17
2019-03-08T20:20:53.915Z,2.47
2019-03-08T20:23:37.934Z,3.00
2019-03-08T20:26:07.869Z,2.20
2019-03-08T20:28:53.645Z,2.10
2019-03-08T20:31:25.199Z,2.00
2019-03-08T20:33:54.219Z,2.43
2019-03-08T20:36:35.055Z,1.83
2019-03-08T20:39:18.838Z,2.70
2019-03-08T20:42:02.977Z,2.13
2019-03-08T20:44:37.464Z,2.30
2019-03-08T20:47:06.383Z,1.80
2019-03-08T20:49:33.715Z,2.57
2019-03-08T20:52:01.059Z,1.80
2019-03-08T20:54:28.330Z,2.23
2019-03-08T20:56:55.579Z,2.47
2019-03-08T20:59:24.853Z,2.30
2019-03-08T21:01:52.079Z,1.60
2019-03-08T21:04:19.947Z,2.40
2019-03-08T21:06:47.367Z,1.73
2019-03-08T21:09:14.642Z,1.97
2019-03-08T21:11:41.913Z,2.27
2019-03-08T21:14:09.158Z,1.93
2019-03-08T21:16:37.490Z,2.50
2019-03-08T21:19:04.851Z,2.27
2019-03-08T21:21:32.122Z,2.40
2019-03-08T21:23:59.361Z,2.10
2019-03-08T21:26:26.648Z,2.50
2019-03-08T21:28:53.894Z,2.53
2019-03-08T21:31:21.141Z,2.10
2019-03-08T21:33:48.421Z,2.43
2019-03-08T21:36:15.918Z,2.60
2019-03-08T21:38:43.182Z,2.20
2019-03-08T21:41:10.790Z,2.00
2019-03-08T21:43:38.066Z,2.13
2019-03-08T21:46:05.316Z,1.83
2019-03-08T21:48:32.589Z,2.00
2019-03-08T21:50:59.902Z,1.70
2019-03-08T21:53:27.175Z,2.50
2019-03-08T21:55:54.627Z,2.60
2019-03-08T21:58:21.869Z,2.23
2019-03-08T22:00:49.386Z,2.40
2019-03-08T22:03:16.988Z,1.70
2019-03-08T22:05:44.234Z,2.37
2019-03-08T22:08:17.282Z,1.80
2019-03-08T22:10:50.939Z,1.83
2019-03-08T22:13:18.255Z,2.40
2019-03-08T22:15:45.522Z,2.37
2019-03-08T22:18:12.841Z,2.57
2019-03-08T22:20:40.360Z,2.97
2019-03-08T22:23:07.782Z,2.10
2019-03-08T22:25:35.217Z,1.87
2019-03-08T22:28:02.551Z,1.90
2019-03-08T22:30:29.842Z,2.13
2019-03-08T22:32:57.411Z,2.03
2019-03-08T22:35:24.662Z,1.60
2019-03-08T22:37:52.203Z,1.80
2019-03-08T22:40:19.465Z,2.40
2019-03-08T22:42:46.746Z,2.33
2019-03-08T22:45:14.095Z,2.00
2019-03-08T22:47:41.365Z,1.83
2019-03-08T22:50:10.142Z,2.27
2019-03-08T22:52:37.666Z,2.00
2019-03-08T22:55:06.405Z,2.20
2019-03-08T22:57:33.940Z,2.40
2019-03-08T23:00:01.178Z,2.20
2019-03-08T23:02:28.465Z,2.07
2019-03-08T23:04:55.844Z,2.10
2019-03-08T23:07:23.392Z,2.37
2019-03-08T23:09:50.634Z,2.30
2019-03-08T23:12:17.916Z,1.80
2019-03-08T23:14:45.417Z,2.30
2019-03-08T23:17:12.657Z,2.10
2019-03-08T23:19:39.966Z,2.30
2019-03-08T23:22:07.387Z,2.17
2019-03-08T23:24:34.630Z,2.70
2019-03-08T23:27:15.341Z,2.57
2019-03-08T23:29:49.938Z,2.00
2019-03-08T23:32:18.926Z,2.30
2019-03-08T23:34:46.166Z,1.90
2019-03-08T23:37:13.442Z,2.20
2019-03-08T23:39:40.691Z,2.07
2019-03-08T23:42:07.950Z,2.30
2019-03-08T23:44:35.205Z,1.80
2019-03-08T23:47:02.722Z,2.20
2019-03-08T23:49:29.994Z,2.30
2019-03-08T23:51:57.266Z,2.40
2019-03-08T23:54:24.510Z,2.03
2019-03-08T23:56:51.786Z,2.17
2019-03-08T23:59:19.054Z,1.83
